Temp: 1.9°C   Baro: 1027.0mb
  Wind: 0.9mph   Dir: ESE (123°)
  Rain: 0.0mm (0.0mm/hr)
  Solar: 102W/m2  Hum: 97%

Historic data

Bath Spa Weather Station Historical Data
Daily Summary for September 29, 2022 Units:  Both    English   Metric
Daily Weekly Monthly Yearly Custom
  High: Low: Average:
Temperature: 61.3 °F /  16.3 °C 43.2 °F /  6.2 °C 50.4 °F /  10.2 °C
Dew Point: 54.6 °F /  12.6 °C 40.1 °F /  4.5 °C 46.7 °F /  8.2 °C
Humidity: 95% 69% 87%
Wind Speed: 6.6mph /  10.6km/h - 1.5mph /  2.4km/h
Wind Gust: 13mph /  20.9km/h - -
Wind- - SW
Pressure: 29.85 in /  1010.7 hPa 29.55 in /  1000.6 hPa -
Precipitation: 0.06 in /  1.52 mm    
Historical Graphs
 
 
Tabular Data for September 29, 2022
Time Temperature Dew Point Pressure Wind Wind Speed Wind Gust Humidity Rainfall Rate (Hourly) solar
00:09 45.9 °F /  7.7 °C 42.3 °F /  5.7 °C 29.59in /  1001.9hPa WSW 0.7mph /  1.1km/h 2mph /  3.2km/h 87% 0.00in /  0mm 0 W/m2
00:14 45.7 °F /  7.6 °C 42.1 °F /  5.6 °C 29.59in /  1001.9hPa WSW 0.9mph /  1.4km/h 2mph /  3.2km/h 87.2% 0.00in /  0mm 0 W/m2
00:19 45.5 °F /  7.5 °C 42.1 °F /  5.6 °C 29.59in /  1001.9hPa WSW 1.3mph /  2.1km/h 3mph /  4.8km/h 88% 0.00in /  0mm 0 W/m2
00:24 45.3 °F /  7.4 °C 41.9 °F /  5.5 °C 29.59in /  1001.9hPa WSW 2mph /  3.2km/h 3mph /  4.8km/h 88% 0.00in /  0mm 0 W/m2
00:29 45.2 °F /  7.3 °C 41.8 °F /  5.4 °C 29.59in /  1001.9hPa WSW 0.7mph /  1.1km/h 3mph /  4.8km/h 88% 0.00in /  0mm 0 W/m2
00:34 45.1 °F /  7.3 °C 41.7 °F /  5.4 °C 29.59in /  1001.9hPa WSW 0.8mph /  1.3km/h 2mph /  3.2km/h 88% 0.00in /  0mm 0 W/m2
00:39 45 °F /  7.2 °C 41.5 °F /  5.3 °C 29.59in /  1001.9hPa Calm   1mph /  1.6km/h 88% 0.00in /  0mm 0 W/m2
00:44 44.8 °F /  7.1 °C 41.4 °F /  5.2 °C 29.59in /  1001.9hPa WSW 0.8mph /  1.3km/h 3mph /  4.8km/h 88% 0.00in /  0mm 0 W/m2
00:49 44.6 °F /  7 °C 41.2 °F /  5.1 °C 29.59in /  1001.9hPa WSW 2mph /  3.2km/h 3mph /  4.8km/h 88% 0.00in /  0mm 0 W/m2
00:54 44.3 °F /  6.8 °C 41.2 °F /  5.1 °C 29.59in /  1001.9hPa WSW 0.2mph /  0.3km/h 2mph /  3.2km/h 88.6% 0.00in /  0mm 0 W/m2
00:59 44.1 °F /  6.7 °C 40.9 °F /  4.9 °C 29.59in /  1001.9hPa WSW 0.4mph /  0.6km/h 2mph /  3.2km/h 88.6% 0.00in /  0mm 0 W/m2
01:04 43.9 °F /  6.6 °C 40.8 °F /  4.9 °C 29.59in /  1001.9hPa WSW 0.5mph /  0.8km/h 2mph /  3.2km/h 89% 0.00in /  0mm 0 W/m2
01:09 43.6 °F /  6.4 °C 40.6 °F /  4.8 °C 29.59in /  1001.9hPa WSW 0.2mph /  0.3km/h 2mph /  3.2km/h 89% 0.00in /  0mm 0 W/m2
01:14 43.4 °F /  6.3 °C 40.4 °F /  4.7 °C 29.58in /  1001.6hPa WSW 0.8mph /  1.3km/h 2mph /  3.2km/h 89% 0.00in /  0mm 0 W/m2
01:19 43.3 °F /  6.3 °C 40.3 °F /  4.6 °C 29.58in /  1001.6hPa WSW 1.6mph /  2.6km/h 3mph /  4.8km/h 89% 0.00in /  0mm 0 W/m2
01:24 43.3 °F /  6.3 °C 40.3 °F /  4.6 °C 29.58in /  1001.6hPa WSW 2.2mph /  3.5km/h 3mph /  4.8km/h 89% 0.00in /  0mm 0 W/m2
01:29 43.3 °F /  6.3 °C 40.3 °F /  4.6 °C 29.58in /  1001.6hPa WSW 1.2mph /  1.9km/h 3mph /  4.8km/h 89% 0.00in /  0mm 0 W/m2
01:34 43.2 °F /  6.2 °C 40.1 °F /  4.5 °C 29.58in /  1001.6hPa WSW 2.5mph /  4km/h 4mph /  6.4km/h 89% 0.00in /  0mm 0 W/m2
01:39 43.3 °F /  6.3 °C 40.6 °F /  4.8 °C 29.58in /  1001.6hPa WSW 2.2mph /  3.5km/h 4mph /  6.4km/h 90% 0.00in /  0mm 0 W/m2
01:44 43.4 °F /  6.3 °C 40.7 °F /  4.8 °C 29.58in /  1001.6hPa WSW 2.2mph /  3.5km/h 3mph /  4.8km/h 90% 0.00in /  0mm 0 W/m2
01:49 43.5 °F /  6.4 °C 40.8 °F /  4.9 °C 29.58in /  1001.6hPa WSW 1.6mph /  2.6km/h 3mph /  4.8km/h 90% 0.00in /  0mm 0 W/m2
01:54 43.5 °F /  6.4 °C 40.8 °F /  4.9 °C 29.58in /  1001.6hPa WSW 0.2mph /  0.3km/h 3mph /  4.8km/h 90% 0.00in /  0mm 0 W/m2
01:59 43.5 °F /  6.4 °C 40.8 °F /  4.9 °C 29.57in /  1001.2hPa WSW 0.4mph /  0.6km/h 1mph /  1.6km/h 90% 0.00in /  0mm 0 W/m2
02:04 43.7 °F /  6.5 °C 41 °F /  5 °C 29.57in /  1001.2hPa WSW 1.7mph /  2.7km/h 3mph /  4.8km/h 90% 0.00in /  0mm 0 W/m2
02:09 44 °F /  6.7 °C 41.3 °F /  5.2 °C 29.57in /  1001.2hPa WSW 1.6mph /  2.6km/h 3mph /  4.8km/h 90% 0.00in /  0mm 0 W/m2
02:14 44.1 °F /  6.7 °C 41.4 °F /  5.2 °C 29.57in /  1001.2hPa WSW 1.6mph /  2.6km/h 3mph /  4.8km/h 90% 0.00in /  0mm 0 W/m2
02:19 44.2 °F /  6.8 °C 41.5 °F /  5.3 °C 29.57in /  1001.2hPa WSW 0.7mph /  1.1km/h 3mph /  4.8km/h 90% 0.00in /  0mm 0 W/m2
02:24 44.2 °F /  6.8 °C 41.5 °F /  5.3 °C 29.57in /  1001.2hPa WSW 0.9mph /  1.4km/h 2mph /  3.2km/h 90% 0.00in /  0mm 0 W/m2
02:29 44.2 °F /  6.8 °C 41.5 °F /  5.3 °C 29.57in /  1001.2hPa WSW 1.2mph /  1.9km/h 2mph /  3.2km/h 90% 0.00in /  0mm 0 W/m2
02:34 44.2 °F /  6.8 °C 41.5 °F /  5.3 °C 29.57in /  1001.2hPa Calm   2mph /  3.2km/h 90% 0.00in /  0mm 0 W/m2
02:39 44.3 °F /  6.8 °C 41.6 °F /  5.3 °C 29.57in /  1001.2hPa Calm     90% 0.00in /  0mm 0 W/m2
02:44 44.4 °F /  6.9 °C 41.7 °F /  5.4 °C 29.57in /  1001.2hPa Calm     90% 0.00in /  0mm 0 W/m2
02:49 44.5 °F /  6.9 °C 41.8 °F /  5.4 °C 29.57in /  1001.2hPa WSW 0.2mph /  0.3km/h 1mph /  1.6km/h 90% 0.00in /  0mm 0 W/m2
02:54 44.6 °F /  7 °C 41.9 °F /  5.5 °C 29.57in /  1001.2hPa WSW 0.4mph /  0.6km/h 2mph /  3.2km/h 90% 0.00in /  0mm 0 W/m2
02:59 44.7 °F /  7.1 °C 42 °F /  5.6 °C 29.57in /  1001.2hPa WSW 0.4mph /  0.6km/h 2mph /  3.2km/h 90% 0.00in /  0mm 0 W/m2
03:04 44.8 °F /  7.1 °C 42.1 °F /  5.6 °C 29.57in /  1001.2hPa WSW 1.6mph /  2.6km/h 3mph /  4.8km/h 90% 0.01in /  0.25mm 0 W/m2
03:09 44.7 °F /  7.1 °C 42 °F /  5.6 °C 29.57in /  1001.2hPa WSW 2.4mph /  3.9km/h 4mph /  6.4km/h 90% 0.02in /  0.51mm 0 W/m2
03:14 44.4 °F /  6.9 °C 41.8 °F /  5.4 °C 29.57in /  1001.2hPa WSW 2.6mph /  4.2km/h 4mph /  6.4km/h 90.4% 0.02in /  0.51mm 0 W/m2
03:19 44.4 °F /  6.9 °C 41.9 °F /  5.5 °C 29.57in /  1001.2hPa WSW 1.6mph /  2.6km/h 4mph /  6.4km/h 91% 0.03in /  0.76mm 0 W/m2
03:24 44.4 °F /  6.9 °C 41.9 °F /  5.5 °C 29.56in /  1000.9hPa WSW 0.8mph /  1.3km/h 3mph /  4.8km/h 91% 0.04in /  1.02mm 0 W/m2
03:29 44.4 °F /  6.9 °C 41.9 °F /  5.5 °C 29.56in /  1000.9hPa WSW 0.2mph /  0.3km/h 2mph /  3.2km/h 91% 0.04in /  1.02mm 0 W/m2
03:34 44.4 °F /  6.9 °C 41.9 °F /  5.5 °C 29.56in /  1000.9hPa WSW 0.5mph /  0.8km/h 2mph /  3.2km/h 91% 0.05in /  1.27mm 0 W/m2
03:39 44.6 °F /  7 °C 42.1 °F /  5.6 °C 29.56in /  1000.9hPa WSW 0.4mph /  0.6km/h 2mph /  3.2km/h 91% 0.05in /  1.27mm 0 W/m2
03:44 44.8 °F /  7.1 °C 42.3 °F /  5.7 °C 29.56in /  1000.9hPa WSW 0.2mph /  0.3km/h 2mph /  3.2km/h 91% 0.05in /  1.27mm 0 W/m2
03:49 45 °F /  7.2 °C 42.4 °F /  5.8 °C 29.55in /  1000.6hPa WSW 0.9mph /  1.4km/h 2mph /  3.2km/h 91% 0.05in /  1.27mm 0 W/m2
03:54 45.1 °F /  7.3 °C 42.6 °F /  5.9 °C 29.55in /  1000.6hPa Calm   1mph /  1.6km/h 91% 0.05in /  1.27mm 0 W/m2
03:59 45.3 °F /  7.4 °C 42.8 °F /  6 °C 29.55in /  1000.6hPa WSW 1.2mph /  1.9km/h 3mph /  4.8km/h 91% 0.05in /  1.27mm 0 W/m2
04:04 45.5 °F /  7.5 °C 43.3 °F /  6.3 °C 29.55in /  1000.6hPa WSW 1.8mph /  2.9km/h 3mph /  4.8km/h 91.8% 0.04in /  1.02mm 0 W/m2
04:09 45.7 °F /  7.6 °C 43.5 °F /  6.4 °C 29.55in /  1000.6hPa WSW 2.4mph /  3.9km/h 3mph /  4.8km/h 92% 0.04in /  1.02mm 0 W/m2
04:14 45.8 °F /  7.7 °C 43.6 °F /  6.4 °C 29.55in /  1000.6hPa WSW 1.7mph /  2.7km/h 3mph /  4.8km/h 92% 0.02in /  0.51mm 0 W/m2
04:19 45.9 °F /  7.7 °C 43.7 °F /  6.5 °C 29.55in /  1000.6hPa WSW 2mph /  3.2km/h 4mph /  6.4km/h 92% 0.02in /  0.51mm 0 W/m2
04:24 45.9 °F /  7.7 °C 43.7 °F /  6.5 °C 29.55in /  1000.6hPa WSW 0.9mph /  1.4km/h 3mph /  4.8km/h 92% 0.02in /  0.51mm 0 W/m2
04:29 46 °F /  7.8 °C 43.9 °F /  6.6 °C 29.55in /  1000.6hPa WSW 1.3mph /  2.1km/h 3mph /  4.8km/h 92% 0.01in /  0.25mm 0 W/m2
04:34 46 °F /  7.8 °C 43.9 °F /  6.6 °C 29.55in /  1000.6hPa WSW 1.6mph /  2.6km/h 4mph /  6.4km/h 92% 0.01in /  0.25mm 0 W/m2
04:39 46 °F /  7.8 °C 43.9 °F /  6.6 °C 29.56in /  1000.9hPa West 0.9mph /  1.4km/h 3mph /  4.8km/h 92% 0.00in /  0mm 0 W/m2
04:44 46.2 °F /  7.9 °C 44.1 °F /  6.7 °C 29.55in /  1000.6hPa West 1.7mph /  2.7km/h 3mph /  4.8km/h 92% 0.00in /  0mm 0 W/m2
04:49 46.2 °F /  7.9 °C 44.1 °F /  6.7 °C 29.55in /  1000.6hPa West 2.2mph /  3.5km/h 5mph /  8km/h 92% 0.00in /  0mm 0 W/m2
04:54 46 °F /  7.8 °C 43.9 °F /  6.6 °C 29.56in /  1000.9hPa WNW 2.4mph /  3.9km/h 4mph /  6.4km/h 92% 0.00in /  0mm 0 W/m2
04:59 46 °F /  7.8 °C 43.9 °F /  6.6 °C 29.55in /  1000.6hPa WNW 2mph /  3.2km/h 4mph /  6.4km/h 92% 0.00in /  0mm 0 W/m2
05:04 46 °F /  7.8 °C 43.9 °F /  6.6 °C 29.56in /  1000.9hPa WNW 2.4mph /  3.9km/h 4mph /  6.4km/h 92% 0.00in /  0mm 0 W/m2
05:09 46 °F /  7.8 °C 43.9 °F /  6.6 °C 29.55in /  1000.6hPa WNW 1.8mph /  2.9km/h 4mph /  6.4km/h 92% 0.01in /  0.25mm 0 W/m2
05:14 46 °F /  7.8 °C 44 °F /  6.7 °C 29.55in /  1000.6hPa WNW 2mph /  3.2km/h 4mph /  6.4km/h 92.2% 0.01in /  0.25mm 0 W/m2
05:19 46 °F /  7.8 °C 44.1 °F /  6.7 °C 29.55in /  1000.6hPa West 2.3mph /  3.7km/h 4mph /  6.4km/h 93% 0.01in /  0.25mm 0 W/m2
05:24 46.1 °F /  7.8 °C 44.1 °F /  6.7 °C 29.56in /  1000.9hPa West 2.7mph /  4.3km/h 4mph /  6.4km/h 93% 0.01in /  0.25mm 0 W/m2
05:29 46.1 °F /  7.8 °C 44.2 °F /  6.8 °C 29.56in /  1000.9hPa West 1.8mph /  2.9km/h 3mph /  4.8km/h 93% 0.01in /  0.25mm 0 W/m2
05:34 46.2 °F /  7.9 °C 44.2 °F /  6.8 °C 29.55in /  1000.6hPa West 2.1mph /  3.4km/h 3mph /  4.8km/h 93% 0.01in /  0.25mm 0 W/m2
05:39 46.2 °F /  7.9 °C 44.2 °F /  6.8 °C 29.56in /  1000.9hPa West 1.8mph /  2.9km/h 4mph /  6.4km/h 93% 0.01in /  0.25mm 0 W/m2
05:44 46.2 °F /  7.9 °C 44.2 °F /  6.8 °C 29.56in /  1000.9hPa West 0.8mph /  1.3km/h 3mph /  4.8km/h 93% 0.01in /  0.25mm 0 W/m2
05:49 46.2 °F /  7.9 °C 44.2 °F /  6.8 °C 29.56in /  1000.9hPa West 0.4mph /  0.6km/h 2mph /  3.2km/h 93% 0.02in /  0.51mm 0 W/m2
05:54 46.3 °F /  7.9 °C 44.3 °F /  6.8 °C 29.56in /  1000.9hPa West 0.4mph /  0.6km/h 2mph /  3.2km/h 93% 0.02in /  0.51mm 0 W/m2
05:59 46.4 °F /  8 °C 44.4 °F /  6.9 °C 29.56in /  1000.9hPa West 0.7mph /  1.1km/h 2mph /  3.2km/h 93% 0.02in /  0.51mm 0 W/m2
06:04 46.5 °F /  8.1 °C 44.5 °F /  6.9 °C 29.56in /  1000.9hPa West 0.6mph /  1km/h 3mph /  4.8km/h 93% 0.02in /  0.51mm 0 W/m2
06:09 46.6 °F /  8.1 °C 44.6 °F /  7 °C 29.57in /  1001.2hPa West 1.2mph /  1.9km/h 2mph /  3.2km/h 93% 0.01in /  0.25mm 0 W/m2
06:14 46.6 °F /  8.1 °C 44.6 °F /  7 °C 29.57in /  1001.2hPa West 0.8mph /  1.3km/h 3mph /  4.8km/h 93% 0.01in /  0.25mm 0 W/m2
06:19 46.6 °F /  8.1 °C 44.6 °F /  7 °C 29.57in /  1001.2hPa West 1.3mph /  2.1km/h 3mph /  4.8km/h 93% 0.01in /  0.25mm 0 W/m2
06:24 46.6 °F /  8.1 °C 44.6 °F /  7 °C 29.57in /  1001.2hPa West 1mph /  1.6km/h 3mph /  4.8km/h 93% 0.01in /  0.25mm 0 W/m2
06:29 46.6 °F /  8.1 °C 44.6 °F /  7 °C 29.57in /  1001.2hPa West 0.2mph /  0.3km/h 2mph /  3.2km/h 93% 0.01in /  0.25mm 0 W/m2
06:34 46.6 °F /  8.1 °C 44.6 °F /  7 °C 29.57in /  1001.2hPa West 0.5mph /  0.8km/h 2mph /  3.2km/h 93% 0.01in /  0.25mm 0 W/m2
06:39 46.7 °F /  8.2 °C 44.7 °F /  7.1 °C 29.57in /  1001.2hPa Calm   1mph /  1.6km/h 93% 0.01in /  0.25mm 0 W/m2
06:44 46.8 °F /  8.2 °C 44.8 °F /  7.1 °C 29.57in /  1001.2hPa West 0.5mph /  0.8km/h 2mph /  3.2km/h 93% 0.01in /  0.25mm 0 W/m2
06:49 46.8 °F /  8.2 °C 44.9 °F /  7.2 °C 29.58in /  1001.6hPa Calm   1mph /  1.6km/h 93.2% 0.01in /  0.25mm 0 W/m2
06:54 46.8 °F /  8.2 °C 45.1 °F /  7.3 °C 29.58in /  1001.6hPa Calm     93.8% 0.00in /  0mm 0 W/m2
06:59 46.9 °F /  8.3 °C 45.2 °F /  7.3 °C 29.57in /  1001.2hPa West 0.5mph /  0.8km/h 2mph /  3.2km/h 94% 0.00in /  0mm 0 W/m2
07:04 46.8 °F /  8.2 °C 45.2 °F /  7.3 °C 29.58in /  1001.6hPa Calm   2mph /  3.2km/h 94% 0.00in /  0mm 0 W/m2
07:09 46.8 °F /  8.2 °C 45.1 °F /  7.3 °C 29.58in /  1001.6hPa Calm     94% 0.00in /  0mm 0 W/m2
07:14 46.8 °F /  8.2 °C 45.1 °F /  7.3 °C 29.58in /  1001.6hPa West 0.2mph /  0.3km/h 2mph /  3.2km/h 94% 0.00in /  0mm 0 W/m2
07:19 46.8 °F /  8.2 °C 45.1 °F /  7.3 °C 29.58in /  1001.6hPa West 0.8mph /  1.3km/h 2mph /  3.2km/h 94% 0.00in /  0mm 0 W/m2
07:24 47 °F /  8.3 °C 45.3 °F /  7.4 °C 29.58in /  1001.6hPa West 0.9mph /  1.4km/h 3mph /  4.8km/h 94% 0.00in /  0mm 7 W/m2
07:29 46.9 °F /  8.3 °C 45.3 °F /  7.4 °C 29.58in /  1001.6hPa West 1.2mph /  1.9km/h 2mph /  3.2km/h 94% 0.00in /  0mm 11 W/m2
07:34 46.9 °F /  8.3 °C 45.3 °F /  7.4 °C 29.58in /  1001.6hPa West 0.2mph /  0.3km/h 2mph /  3.2km/h 94% 0.00in /  0mm 12 W/m2
07:39 47.1 °F /  8.4 °C 45.5 °F /  7.5 °C 29.58in /  1001.6hPa West 0.8mph /  1.3km/h 3mph /  4.8km/h 94% 0.00in /  0mm 14 W/m2
07:44 47.1 °F /  8.4 °C 45.5 °F /  7.5 °C 29.59in /  1001.9hPa West 1.2mph /  1.9km/h 3mph /  4.8km/h 94% 0.00in /  0mm 19 W/m2
07:49 47.1 °F /  8.4 °C 45.5 °F /  7.5 °C 29.59in /  1001.9hPa West 1.8mph /  2.9km/h 4mph /  6.4km/h 94% 0.00in /  0mm 26 W/m2
07:54 47.1 °F /  8.4 °C 45.5 °F /  7.5 °C 29.59in /  1001.9hPa West 1.7mph /  2.7km/h 4mph /  6.4km/h 94% 0.00in /  0mm 28 W/m2
07:59 47.1 °F /  8.4 °C 45.5 °F /  7.5 °C 29.59in /  1001.9hPa West 2.1mph /  3.4km/h 4mph /  6.4km/h 94% 0.00in /  0mm 33 W/m2
08:04 47.2 °F /  8.4 °C 45.6 °F /  7.6 °C 29.59in /  1001.9hPa West 1.6mph /  2.6km/h 4mph /  6.4km/h 94% 0.00in /  0mm 30 W/m2
08:09 47.3 °F /  8.5 °C 45.7 °F /  7.6 °C 29.59in /  1001.9hPa West 1.7mph /  2.7km/h 3mph /  4.8km/h 94% 0.00in /  0mm 23 W/m2
08:14 47.5 °F /  8.6 °C 45.9 °F /  7.7 °C 29.59in /  1001.9hPa West 1.3mph /  2.1km/h 3mph /  4.8km/h 94% 0.00in /  0mm 33 W/m2
08:19 47.6 °F /  8.7 °C 46 °F /  7.8 °C 29.59in /  1001.9hPa West 1.2mph /  1.9km/h 3mph /  4.8km/h 94% 0.00in /  0mm 47 W/m2
08:24 48 °F /  8.9 °C 46.4 °F /  8 °C 29.59in /  1001.9hPa West 0.2mph /  0.3km/h 2mph /  3.2km/h 94% 0.00in /  0mm 33 W/m2
08:29 48.1 °F /  8.9 °C 46.5 °F /  8.1 °C 29.60in /  1002.3hPa West 0.8mph /  1.3km/h 2mph /  3.2km/h 94% 0.00in /  0mm 33 W/m2
08:34 48.1 °F /  8.9 °C 46.5 °F /  8.1 °C 29.60in /  1002.3hPa West 0.4mph /  0.6km/h 2mph /  3.2km/h 94% 0.00in /  0mm 51 W/m2
08:39 48.3 °F /  9.1 °C 46.8 °F /  8.2 °C 29.60in /  1002.3hPa Calm   2mph /  3.2km/h 94% 0.00in /  0mm 72 W/m2
08:44 48.4 °F /  9.1 °C 46.8 °F /  8.2 °C 29.60in /  1002.3hPa West 0.6mph /  1km/h 3mph /  4.8km/h 94% 0.00in /  0mm 77 W/m2
08:49 48.4 °F /  9.1 °C 46.8 °F /  8.2 °C 29.60in /  1002.3hPa West 0.9mph /  1.4km/h 3mph /  4.8km/h 94% 0.00in /  0mm 83 W/m2
08:54 48.7 °F /  9.3 °C 47.1 °F /  8.4 °C 29.61in /  1002.6hPa West 0.2mph /  0.3km/h 2mph /  3.2km/h 94.4% 0.00in /  0mm 91 W/m2
08:59 49.2 °F /  9.6 °C 47.6 °F /  8.7 °C 29.61in /  1002.6hPa Calm     94% 0.00in /  0mm 90 W/m2
09:04 49.3 °F /  9.6 °C 47.8 °F /  8.8 °C 29.61in /  1002.6hPa West 0.4mph /  0.6km/h 3mph /  4.8km/h 94.2% 0.00in /  0mm 81 W/m2
09:09 49.3 °F /  9.6 °C 47.7 °F /  8.7 °C 29.62in /  1002.9hPa West 0.9mph /  1.4km/h 3mph /  4.8km/h 94% 0.00in /  0mm 86 W/m2
09:14 49.2 °F /  9.6 °C 47.6 °F /  8.7 °C 29.62in /  1002.9hPa West 1.7mph /  2.7km/h 3mph /  4.8km/h 94% 0.00in /  0mm 69 W/m2
09:19 49.3 °F /  9.6 °C 47.8 °F /  8.8 °C 29.62in /  1002.9hPa West 0.2mph /  0.3km/h 2mph /  3.2km/h 94.4% 0.00in /  0mm 83 W/m2
09:24 49.6 °F /  9.8 °C 48.2 °F /  9 °C 29.62in /  1002.9hPa West 1.1mph /  1.8km/h 3mph /  4.8km/h 95% 0.00in /  0mm 88 W/m2
09:29 49.6 °F /  9.8 °C 48.2 °F /  9 °C 29.62in /  1002.9hPa West 0.9mph /  1.4km/h 2mph /  3.2km/h 95% 0.00in /  0mm 65 W/m2
09:34 49.7 °F /  9.8 °C 48.2 °F /  9 °C 29.62in /  1002.9hPa West 0.2mph /  0.3km/h 2mph /  3.2km/h 94.4% 0.00in /  0mm 79 W/m2
09:39 49.8 °F /  9.9 °C 48.3 °F /  9.1 °C 29.62in /  1002.9hPa West 1mph /  1.6km/h 3mph /  4.8km/h 94.4% 0.00in /  0mm 86 W/m2
09:44 49.8 °F /  9.9 °C 48.3 °F /  9.1 °C 29.63in /  1003.3hPa West 2.8mph /  4.5km/h 4mph /  6.4km/h 94.4% 0.00in /  0mm 121 W/m2
09:49 50.2 °F /  10.1 °C 48.7 °F /  9.3 °C 29.63in /  1003.3hPa West 1.4mph /  2.3km/h 3mph /  4.8km/h 95% 0.00in /  0mm 132 W/m2
09:54 50.4 °F /  10.2 °C 48.9 °F /  9.4 °C 29.63in /  1003.3hPa NW 2.9mph /  4.7km/h 6mph /  9.7km/h 94.8% 0.00in /  0mm 141 W/m2
09:59 50.5 °F /  10.3 °C 49.1 °F /  9.5 °C 29.63in /  1003.3hPa NW 2.5mph /  4km/h 5mph /  8km/h 94.8% 0.00in /  0mm 135 W/m2
10:04 50.5 °F /  10.3 °C 49 °F /  9.4 °C 29.63in /  1003.3hPa North 5.1mph /  8.2km/h 8mph /  12.9km/h 94.2% 0.00in /  0mm 163 W/m2
10:09 50.7 °F /  10.4 °C 49.1 °F /  9.5 °C 29.64in /  1003.6hPa North 2.7mph /  4.3km/h 8mph /  12.9km/h 94.2% 0.00in /  0mm 220 W/m2
10:14 50.9 °F /  10.5 °C 49.5 °F /  9.7 °C 29.64in /  1003.6hPa NNW 4.9mph /  7.9km/h 9mph /  14.5km/h 95% 0.00in /  0mm 186 W/m2
10:19 51 °F /  10.6 °C 49.4 °F /  9.7 °C 29.64in /  1003.6hPa North 2.5mph /  4km/h 9mph /  14.5km/h 94.2% 0.00in /  0mm 178 W/m2
10:24 51.1 °F /  10.6 °C 49.5 °F /  9.7 °C 29.64in /  1003.6hPa NNW 2.1mph /  3.4km/h 6mph /  9.7km/h 94% 0.00in /  0mm 125 W/m2
10:29 51.1 °F /  10.6 °C 49.5 °F /  9.7 °C 29.65in /  1003.9hPa North 2.1mph /  3.4km/h 8mph /  12.9km/h 94% 0.00in /  0mm 107 W/m2
10:34 51.1 °F /  10.6 °C 49.5 °F /  9.7 °C 29.65in /  1003.9hPa North 2.5mph /  4km/h 6mph /  9.7km/h 94% 0.00in /  0mm 137 W/m2
10:39 51.2 °F /  10.7 °C 49.5 °F /  9.7 °C 29.65in /  1003.9hPa NNW 1.4mph /  2.3km/h 4mph /  6.4km/h 94% 0.00in /  0mm 206 W/m2
10:44 51.4 °F /  10.8 °C 49.8 °F /  9.9 °C 29.65in /  1003.9hPa NNW 1.2mph /  1.9km/h 4mph /  6.4km/h 94% 0.00in /  0mm 237 W/m2
10:49 51.6 °F /  10.9 °C 50 °F /  10 °C 29.65in /  1003.9hPa North 2mph /  3.2km/h 6mph /  9.7km/h 94% 0.00in /  0mm 202 W/m2
10:54 51.8 °F /  11 °C 50.2 °F /  10.1 °C 29.65in /  1003.9hPa North 2.5mph /  4km/h 7mph /  11.3km/h 94% 0.00in /  0mm 362 W/m2
10:59 51.9 °F /  11.1 °C 50.3 °F /  10.2 °C 29.65in /  1003.9hPa NNE 1.7mph /  2.7km/h 7mph /  11.3km/h 94% 0.00in /  0mm 267 W/m2
11:04 52.1 °F /  11.2 °C 50.4 °F /  10.2 °C 29.66in /  1004.3hPa North 4.1mph /  6.6km/h 9mph /  14.5km/h 94% 0.00in /  0mm 248 W/m2
11:09 52.2 °F /  11.2 °C 50.5 °F /  10.3 °C 29.66in /  1004.3hPa North 3.5mph /  5.6km/h 7mph /  11.3km/h 94% 0.00in /  0mm 181 W/m2
11:14 52.1 °F /  11.2 °C 50.5 °F /  10.3 °C 29.66in /  1004.3hPa NNW 4.9mph /  7.9km/h 8mph /  12.9km/h 94% 0.00in /  0mm 118 W/m2
11:19 51.7 °F /  10.9 °C 50.1 °F /  10.1 °C 29.66in /  1004.3hPa NW 4.5mph /  7.2km/h 8mph /  12.9km/h 94% 0.00in /  0mm 40 W/m2
11:24 51.5 °F /  10.8 °C 49.9 °F /  9.9 °C 29.66in /  1004.3hPa NNW 4.1mph /  6.6km/h 10mph /  16.1km/h 94% 0.00in /  0mm 72 W/m2
11:29 51.5 °F /  10.8 °C 49.9 °F /  9.9 °C 29.67in /  1004.6hPa NNW 2.1mph /  3.4km/h 7mph /  11.3km/h 94% 0.00in /  0mm 137 W/m2
11:34 51.7 °F /  10.9 °C 50.1 °F /  10.1 °C 29.67in /  1004.6hPa NNW 2.8mph /  4.5km/h 5mph /  8km/h 94% 0.00in /  0mm 272 W/m2
11:39 52.1 °F /  11.2 °C 50.5 °F /  10.3 °C 29.67in /  1004.6hPa NW 3.7mph /  6km/h 10mph /  16.1km/h 94% 0.00in /  0mm 258 W/m2
11:44 52.4 °F /  11.3 °C 50.8 °F /  10.4 °C 29.67in /  1004.6hPa NNW 4.4mph /  7.1km/h 9mph /  14.5km/h 94% 0.00in /  0mm 253 W/m2
11:49 52.6 °F /  11.4 °C 51 °F /  10.6 °C 29.67in /  1004.6hPa North 5mph /  8km/h 9mph /  14.5km/h 94% 0.00in /  0mm 297 W/m2
11:54 53.1 °F /  11.7 °C 51.2 °F /  10.7 °C 29.67in /  1004.6hPa North 3.9mph /  6.3km/h 7mph /  11.3km/h 93.2% 0.00in /  0mm 309 W/m2
11:59 53.4 °F /  11.9 °C 51.4 °F /  10.8 °C 29.68in /  1005hPa NW 5mph /  8km/h 10mph /  16.1km/h 93% 0.00in /  0mm 408 W/m2
12:04 53.6 °F /  12 °C 51.6 °F /  10.9 °C 29.68in /  1005hPa NNW 3.9mph /  6.3km/h 10mph /  16.1km/h 93% 0.00in /  0mm 367 W/m2
12:09 53.9 °F /  12.2 °C 51.9 °F /  11.1 °C 29.67in /  1004.6hPa NNW 5.3mph /  8.5km/h 9mph /  14.5km/h 93% 0.00in /  0mm 359 W/m2
12:14 54 °F /  12.2 °C 51.8 °F /  11 °C 29.67in /  1004.6hPa NNW 5mph /  8km/h 9mph /  14.5km/h 92.6% 0.00in /  0mm 248 W/m2
12:19 54 °F /  12.2 °C 51.6 °F /  10.9 °C 29.68in /  1005hPa NNW 4.4mph /  7.1km/h 8mph /  12.9km/h 92% 0.00in /  0mm 281 W/m2
12:24 53.8 °F /  12.1 °C 51.4 °F /  10.8 °C 29.68in /  1005hPa NNW 4.4mph /  7.1km/h 10mph /  16.1km/h 92% 0.00in /  0mm 271 W/m2
12:29 53.8 °F /  12.1 °C 51.4 °F /  10.8 °C 29.68in /  1005hPa North 3.8mph /  6.1km/h 8mph /  12.9km/h 91.4% 0.00in /  0mm 241 W/m2
12:34 54.1 °F /  12.3 °C 51.6 °F /  10.9 °C 29.68in /  1005hPa NNW 3.2mph /  5.1km/h 7mph /  11.3km/h 91% 0.00in /  0mm 241 W/m2
12:39 54.4 °F /  12.4 °C 51.9 °F /  11.1 °C 29.68in /  1005hPa North 3.3mph /  5.3km/h 6mph /  9.7km/h 91% 0.00in /  0mm 213 W/m2
12:44 54.8 °F /  12.7 °C 52.2 °F /  11.2 °C 29.68in /  1005hPa North 1.4mph /  2.3km/h 5mph /  8km/h 90.6% 0.00in /  0mm 225 W/m2
12:49 55.1 °F /  12.8 °C 52.3 °F /  11.3 °C 29.68in /  1005hPa North 1.2mph /  1.9km/h 3mph /  4.8km/h 90% 0.00in /  0mm 272 W/m2
12:54 55.6 °F /  13.1 °C 52.7 °F /  11.5 °C 29.69in /  1005.3hPa NNE 0.6mph /  1km/h 3mph /  4.8km/h 90% 0.00in /  0mm 267 W/m2
12:59 56.1 °F /  13.4 °C 53.1 °F /  11.7 °C 29.69in /  1005.3hPa North 0.6mph /  1km/h 5mph /  8km/h 89.6% 0.00in /  0mm 322 W/m2
13:04 56.8 °F /  13.8 °C 53.4 °F /  11.9 °C 29.69in /  1005.3hPa East 3.1mph /  5km/h 8mph /  12.9km/h 88.6% 0.00in /  0mm 446 W/m2
13:09 57.9 °F /  14.4 °C 54.2 °F /  12.3 °C 29.69in /  1005.3hPa ENE 5.4mph /  8.7km/h 9mph /  14.5km/h 87.6% 0.00in /  0mm 446 W/m2
13:14 58.8 °F /  14.9 °C 54.6 °F /  12.6 °C 29.69in /  1005.3hPa East 2.8mph /  4.5km/h 7mph /  11.3km/h 85.8% 0.00in /  0mm 415 W/m2
13:19 59.2 °F /  15.1 °C 54.1 °F /  12.3 °C 29.69in /  1005.3hPa East 5.1mph /  8.2km/h 8mph /  12.9km/h 83.4% 0.00in /  0mm 149 W/m2
13:24 58.8 °F /  14.9 °C 53.2 °F /  11.8 °C 29.70in /  1005.6hPa ENE 4mph /  6.4km/h 7mph /  11.3km/h 81.2% 0.00in /  0mm 95 W/m2
13:29 58.6 °F /  14.8 °C 52.5 °F /  11.4 °C 29.70in /  1005.6hPa ENE 2.5mph /  4km/h 5mph /  8km/h 80.2% 0.00in /  0mm 118 W/m2
13:34 58.4 °F /  14.7 °C 52.2 °F /  11.2 °C 29.70in /  1005.6hPa ENE 1mph /  1.6km/h 5mph /  8km/h 80% 0.00in /  0mm 118 W/m2
13:39 57.9 °F /  14.4 °C 51.7 °F /  10.9 °C 29.70in /  1005.6hPa ENE 2mph /  3.2km/h 5mph /  8km/h 79.6% 0.00in /  0mm 120 W/m2
13:44 57.6 °F /  14.2 °C 51.4 °F /  10.8 °C 29.70in /  1005.6hPa NNE 2.9mph /  4.7km/h 7mph /  11.3km/h 79.6% 0.00in /  0mm 98 W/m2
13:48 57.1 °F /  13.9 °C 50.6 °F /  10.3 °C 29.70in /  1005.6hPa NNE 2.5mph /  4km/h 5mph /  8km/h 79% 0.00in /  0mm 121 W/m2
13:54 57 °F /  13.9 °C 50.9 °F /  10.5 °C 29.70in /  1005.6hPa NE 2.7mph /  4.3km/h 6mph /  9.7km/h 80% 0.00in /  0mm 141 W/m2
13:59 56.8 °F /  13.8 °C 50.7 °F /  10.4 °C 29.70in /  1005.6hPa NNE 1.5mph /  2.4km/h 6mph /  9.7km/h 80% 0.00in /  0mm 144 W/m2
14:04 56.8 °F /  13.8 °C 50.7 °F /  10.4 °C 29.71in /  1006hPa NE 2.5mph /  4km/h 6mph /  9.7km/h 80% 0.00in /  0mm 121 W/m2
14:09 56.7 °F /  13.7 °C 50.6 °F /  10.3 °C 29.71in /  1006hPa North 2.8mph /  4.5km/h 6mph /  9.7km/h 80% 0.00in /  0mm 84 W/m2
14:14 56.5 °F /  13.6 °C 50.4 °F /  10.2 °C 29.71in /  1006hPa NNE 3.6mph /  5.8km/h 6mph /  9.7km/h 80% 0.00in /  0mm 76 W/m2
14:19 56 °F /  13.3 °C 50.2 °F /  10.1 °C 29.71in /  1006hPa North 4.4mph /  7.1km/h 8mph /  12.9km/h 80.8% 0.00in /  0mm 51 W/m2
14:24 55.6 °F /  13.1 °C 50 °F /  10 °C 29.72in /  1006.3hPa North 1.7mph /  2.7km/h 6mph /  9.7km/h 81.6% 0.00in /  0mm 54 W/m2
14:29 55.2 °F /  12.9 °C 50 °F /  10 °C 29.72in /  1006.3hPa NNE 3.3mph /  5.3km/h 6mph /  9.7km/h 82.4% 0.00in /  0mm 79 W/m2
14:34 55.1 °F /  12.8 °C 50.1 °F /  10.1 °C 29.72in /  1006.3hPa NNE 2.5mph /  4km/h 7mph /  11.3km/h 83% 0.00in /  0mm 142 W/m2
14:39 55.2 °F /  12.9 °C 50.4 °F /  10.2 °C 29.72in /  1006.3hPa North 1.5mph /  2.4km/h 4mph /  6.4km/h 83.4% 0.00in /  0mm 195 W/m2
14:44 55.4 °F /  13 °C 50.7 °F /  10.4 °C 29.72in /  1006.3hPa North 1.8mph /  2.9km/h 3mph /  4.8km/h 84% 0.00in /  0mm 206 W/m2
14:49 55.7 °F /  13.2 °C 50.8 °F /  10.4 °C 29.72in /  1006.3hPa NNE 2mph /  3.2km/h 5mph /  8km/h 83.6% 0.00in /  0mm 165 W/m2
14:54 55.9 °F /  13.3 °C 51.1 °F /  10.6 °C 29.72in /  1006.3hPa NE 6.6mph /  10.6km/h 13mph /  20.9km/h 83.6% 0.00in /  0mm 144 W/m2
14:59 55.9 °F /  13.3 °C 50.7 °F /  10.4 °C 29.72in /  1006.3hPa NNE 4mph /  6.4km/h 9mph /  14.5km/h 82.4% 0.00in /  0mm 162 W/m2
15:04 56.1 °F /  13.4 °C 50.7 °F /  10.4 °C 29.72in /  1006.3hPa NE 3mph /  4.8km/h 6mph /  9.7km/h 82% 0.00in /  0mm 169 W/m2
15:09 56.3 °F /  13.5 °C 50.8 °F /  10.4 °C 29.72in /  1006.3hPa NNE 3.1mph /  5km/h 7mph /  11.3km/h 81.8% 0.00in /  0mm 162 W/m2
15:14 56.5 °F /  13.6 °C 50.7 °F /  10.4 °C 29.72in /  1006.3hPa NNE 3.4mph /  5.5km/h 8mph /  12.9km/h 81% 0.00in /  0mm 151 W/m2
15:19 56.5 °F /  13.6 °C 50.6 °F /  10.3 °C 29.72in /  1006.3hPa North 2.8mph /  4.5km/h 4mph /  6.4km/h 80.8% 0.00in /  0mm 135 W/m2
15:24 56.5 °F /  13.6 °C 50.4 °F /  10.2 °C 29.72in /  1006.3hPa North 1.2mph /  1.9km/h 4mph /  6.4km/h 80% 0.00in /  0mm 158 W/m2
15:29 56.5 °F /  13.6 °C 50.6 °F /  10.3 °C 29.72in /  1006.3hPa NNW 2.3mph /  3.7km/h 5mph /  8km/h 80.8% 0.00in /  0mm 158 W/m2
15:34 56.7 °F /  13.7 °C 50.9 °F /  10.5 °C 29.72in /  1006.3hPa North 1.4mph /  2.3km/h 5mph /  8km/h 81% 0.00in /  0mm 158 W/m2
15:39 56.9 °F /  13.8 °C 51.1 °F /  10.6 °C 29.72in /  1006.3hPa NNE 1mph /  1.6km/h 4mph /  6.4km/h 81% 0.00in /  0mm 385 W/m2
15:44 57.4 °F /  14.1 °C 51.4 °F /  10.8 °C 29.72in /  1006.3hPa NNE 1mph /  1.6km/h 2mph /  3.2km/h 80.6% 0.00in /  0mm 568 W/m2
15:49 57.6 °F /  14.2 °C 51.3 °F /  10.7 °C 29.72in /  1006.3hPa WSW 1.3mph /  2.1km/h 4mph /  6.4km/h 79.6% 0.00in /  0mm 207 W/m2
15:54 57.3 °F /  14.1 °C 50.8 °F /  10.4 °C 29.73in /  1006.7hPa SSW 0.2mph /  0.3km/h 3mph /  4.8km/h 79% 0.00in /  0mm 144 W/m2
15:58 57.1 °F /  13.9 °C 50.6 °F /  10.3 °C 29.72in /  1006.3hPa SSW 0.5mph /  0.8km/h 3mph /  4.8km/h 79% 0.00in /  0mm 118 W/m2
16:04 57.2 °F /  14 °C 50.7 °F /  10.4 °C 29.73in /  1006.7hPa NNW 2.1mph /  3.4km/h 4mph /  6.4km/h 79% 0.00in /  0mm 151 W/m2
16:09 57.7 °F /  14.3 °C 51.4 °F /  10.8 °C 29.73in /  1006.7hPa NE 4.6mph /  7.4km/h 7mph /  11.3km/h 79.6% 0.00in /  0mm 160 W/m2
16:14 57.7 °F /  14.3 °C 51.1 °F /  10.6 °C 29.73in /  1006.7hPa North 2mph /  3.2km/h 4mph /  6.4km/h 78.6% 0.00in /  0mm 125 W/m2
16:19 57.6 °F /  14.2 °C 50.7 °F /  10.4 °C 29.73in /  1006.7hPa North 1.4mph /  2.3km/h 6mph /  9.7km/h 78% 0.00in /  0mm 341 W/m2
16:24 57.9 °F /  14.4 °C 51.1 °F /  10.6 °C 29.74in /  1007hPa NNE 2.5mph /  4km/h 5mph /  8km/h 78% 0.00in /  0mm 376 W/m2
16:29 58.3 °F /  14.6 °C 51.2 °F /  10.7 °C 29.74in /  1007hPa NNW 4.8mph /  7.7km/h 7mph /  11.3km/h 77.2% 0.00in /  0mm 406 W/m2
16:34 58.4 °F /  14.7 °C 50.8 °F /  10.4 °C 29.74in /  1007hPa NNW 3.2mph /  5.1km/h 6mph /  9.7km/h 75.8% 0.00in /  0mm 329 W/m2
16:39 58.3 °F /  14.6 °C 50.5 °F /  10.3 °C 29.74in /  1007hPa NNE 1.5mph /  2.4km/h 5mph /  8km/h 75.2% 0.00in /  0mm 385 W/m2
16:44 59.2 °F /  15.1 °C 51.4 °F /  10.8 °C 29.74in /  1007hPa NNW 2.2mph /  3.5km/h 5mph /  8km/h 75.4% 0.00in /  0mm 369 W/m2
16:49 60 °F /  15.6 °C 51.6 °F /  10.9 °C 29.74in /  1007hPa ENE 0.9mph /  1.4km/h 5mph /  8km/h 73.8% 0.00in /  0mm 316 W/m2
16:54 60.3 °F /  15.7 °C 51.3 °F /  10.7 °C 29.74in /  1007hPa NE 2.4mph /  3.9km/h 6mph /  9.7km/h 72.2% 0.00in /  0mm 260 W/m2
16:59 60.6 °F /  15.9 °C 51.6 °F /  10.9 °C 29.75in /  1007.3hPa ENE 2.1mph /  3.4km/h 8mph /  12.9km/h 72% 0.00in /  0mm 272 W/m2
17:04 61.2 °F /  16.2 °C 51.9 °F /  11.1 °C 29.75in /  1007.3hPa ENE 1.2mph /  1.9km/h 5mph /  8km/h 71.4% 0.00in /  0mm 216 W/m2
17:09 61.3 °F /  16.3 °C 51.6 °F /  10.9 °C 29.75in /  1007.3hPa NNE 1.2mph /  1.9km/h 3mph /  4.8km/h 70.5% 0.00in /  0mm 207 W/m2
17:14 61.2 °F /  16.2 °C 51.4 °F /  10.8 °C 29.75in /  1007.3hPa NE 4.4mph /  7.1km/h 10mph /  16.1km/h 70.4% 0.00in /  0mm 186 W/m2
17:19 60.6 °F /  15.9 °C 50.7 °F /  10.4 °C 29.75in /  1007.3hPa North 4.5mph /  7.2km/h 10mph /  16.1km/h 70% 0.00in /  0mm 178 W/m2
17:24 59.8 °F /  15.4 °C 50 °F /  10 °C 29.75in /  1007.3hPa NNW 1.3mph /  2.1km/h 5mph /  8km/h 70% 0.00in /  0mm 139 W/m2
17:29 59.4 °F /  15.2 °C 49.7 °F /  9.8 °C 29.75in /  1007.3hPa North 3.7mph /  6km/h 7mph /  11.3km/h 70% 0.00in /  0mm 149 W/m2
17:34 59.4 °F /  15.2 °C 49.6 °F /  9.8 °C 29.76in /  1007.7hPa NNW 2.3mph /  3.7km/h 5mph /  8km/h 70% 0.00in /  0mm 128 W/m2
17:39 59.6 °F /  15.3 °C 50.2 °F /  10.1 °C 29.76in /  1007.7hPa North 1.6mph /  2.6km/h 4mph /  6.4km/h 70.8% 0.00in /  0mm 121 W/m2
17:44 59.9 °F /  15.5 °C 50.2 °F /  10.1 °C 29.77in /  1008hPa North 1mph /  1.6km/h 3mph /  4.8km/h 70% 0.00in /  0mm 109 W/m2
17:49 60.3 °F /  15.7 °C 50.2 °F /  10.1 °C 29.77in /  1008hPa North 2.6mph /  4.2km/h 6mph /  9.7km/h 69.4% 0.00in /  0mm 95 W/m2
17:54 60.3 °F /  15.7 °C 50 °F /  10 °C 29.77in /  1008hPa North 3mph /  4.8km/h 6mph /  9.7km/h 69% 0.00in /  0mm 83 W/m2
17:59 60.2 °F /  15.7 °C 49.9 °F /  9.9 °C 29.77in /  1008hPa NNE 2.5mph /  4km/h 6mph /  9.7km/h 69% 0.00in /  0mm 74 W/m2
18:04 60 °F /  15.6 °C 49.7 °F /  9.8 °C 29.78in /  1008.4hPa North 2.4mph /  3.9km/h 4mph /  6.4km/h 69% 0.00in /  0mm 62 W/m2
18:09 59.7 °F /  15.4 °C 49.5 °F /  9.7 °C 29.78in /  1008.4hPa NNE 0.9mph /  1.4km/h 4mph /  6.4km/h 69% 0.00in /  0mm 49 W/m2
18:14 60 °F /  15.6 °C 50.2 °F /  10.1 °C 29.78in /  1008.4hPa NNE 0.5mph /  0.8km/h 4mph /  6.4km/h 70% 0.00in /  0mm 37 W/m2
18:19 60.2 °F /  15.7 °C 50.3 °F /  10.2 °C 29.78in /  1008.4hPa NNE 1mph /  1.6km/h 4mph /  6.4km/h 70% 0.00in /  0mm 30 W/m2
18:24 60.3 °F /  15.7 °C 50.4 °F /  10.2 °C 29.78in /  1008.4hPa NNE 0.2mph /  0.3km/h 2mph /  3.2km/h 70% 0.00in /  0mm 23 W/m2
18:29 60 °F /  15.6 °C 50.3 °F /  10.2 °C 29.78in /  1008.4hPa NNE 0.7mph /  1.1km/h 2mph /  3.2km/h 70.4% 0.00in /  0mm 21 W/m2
18:34 59.3 °F /  15.2 °C 50.1 °F /  10.1 °C 29.78in /  1008.4hPa NNE 0.9mph /  1.4km/h 2mph /  3.2km/h 71.6% 0.00in /  0mm 21 W/m2
18:39 58.4 °F /  14.7 °C 49.9 °F /  9.9 °C 29.78in /  1008.4hPa NNE 1.1mph /  1.8km/h 2mph /  3.2km/h 73.4% 0.00in /  0mm 12 W/m2
18:44 57.5 °F /  14.2 °C 49.4 °F /  9.7 °C 29.79in /  1008.7hPa NNE 1.8mph /  2.9km/h 2mph /  3.2km/h 74.4% 0.00in /  0mm 9 W/m2
18:49 56.7 °F /  13.7 °C 48.9 °F /  9.4 °C 29.79in /  1008.7hPa NNE 0.7mph /  1.1km/h 2mph /  3.2km/h 75.4% 0.00in /  0mm 7 W/m2
18:54 56.2 °F /  13.4 °C 48.8 °F /  9.3 °C 29.79in /  1008.7hPa NNE 0.7mph /  1.1km/h 2mph /  3.2km/h 76.3% 0.00in /  0mm 5 W/m2
18:59 55.9 °F /  13.3 °C 48.9 °F /  9.4 °C 29.79in /  1008.7hPa Calm   1mph /  1.6km/h 77% 0.00in /  0mm 0 W/m2
19:04 55.7 °F /  13.2 °C 48.8 °F /  9.3 °C 29.80in /  1009hPa NNE 0.5mph /  0.8km/h 2mph /  3.2km/h 77.4% 0.00in /  0mm 0 W/m2
19:09 54.7 °F /  12.6 °C 48 °F /  8.9 °C 29.80in /  1009hPa NNE 0.5mph /  0.8km/h 2mph /  3.2km/h 78% 0.00in /  0mm 0 W/m2
19:14 53.8 °F /  12.1 °C 47.2 °F /  8.4 °C 29.80in /  1009hPa North 2mph /  3.2km/h 4mph /  6.4km/h 78.2% 0.00in /  0mm 0 W/m2
19:19 53.1 °F /  11.7 °C 46.9 °F /  8.3 °C 29.81in /  1009.4hPa NNW 2.6mph /  4.2km/h 5mph /  8km/h 79.2% 0.00in /  0mm 0 W/m2
19:24 52.7 °F /  11.5 °C 46.8 °F /  8.2 °C 29.81in /  1009.4hPa NW 2mph /  3.2km/h 5mph /  8km/h 80.2% 0.00in /  0mm 0 W/m2
19:29 52.5 °F /  11.4 °C 46.9 °F /  8.3 °C 29.81in /  1009.4hPa NW 0.9mph /  1.4km/h 3mph /  4.8km/h 81.2% 0.00in /  0mm 0 W/m2
19:34 52.2 °F /  11.2 °C 46.8 °F /  8.2 °C 29.81in /  1009.4hPa NW 0.4mph /  0.6km/h 3mph /  4.8km/h 81.8% 0.00in /  0mm 0 W/m2
19:39 51.6 °F /  10.9 °C 46.5 °F /  8.1 °C 29.81in /  1009.4hPa NW 1.6mph /  2.6km/h 3mph /  4.8km/h 82.6% 0.00in /  0mm 0 W/m2
19:44 51.6 °F /  10.9 °C 46.6 °F /  8.1 °C 29.81in /  1009.4hPa NW 0.2mph /  0.3km/h 2mph /  3.2km/h 83% 0.00in /  0mm 0 W/m2
19:49 51.4 °F /  10.8 °C 46.8 °F /  8.2 °C 29.81in /  1009.4hPa Calm     83.8% 0.00in /  0mm 0 W/m2
19:54 51.4 °F /  10.8 °C 46.8 °F /  8.2 °C 29.81in /  1009.4hPa Calm     84% 0.00in /  0mm 0 W/m2
19:59 51.3 °F /  10.7 °C 46.6 °F /  8.1 °C 29.81in /  1009.4hPa NW 0.5mph /  0.8km/h 2mph /  3.2km/h 84% 0.00in /  0mm 0 W/m2
20:04 51.3 °F /  10.7 °C 46.6 °F /  8.1 °C 29.81in /  1009.4hPa Calm   1mph /  1.6km/h 84% 0.00in /  0mm 0 W/m2
20:09 50.8 °F /  10.4 °C 46.2 °F /  7.9 °C 29.81in /  1009.4hPa Calm     84.2% 0.00in /  0mm 0 W/m2
20:14 50.7 °F /  10.4 °C 46.4 °F /  8 °C 29.81in /  1009.4hPa Calm     85% 0.00in /  0mm 0 W/m2
20:19 50.5 °F /  10.3 °C 46.2 °F /  7.9 °C 29.82in /  1009.7hPa Calm     85% 0.00in /  0mm 0 W/m2
20:24 50.5 °F /  10.3 °C 46.1 °F /  7.8 °C 29.82in /  1009.7hPa Calm     85% 0.00in /  0mm 0 W/m2
20:29 50.4 °F /  10.2 °C 46 °F /  7.8 °C 29.82in /  1009.7hPa Calm     85% 0.00in /  0mm 0 W/m2
20:34 50.2 °F /  10.1 °C 46 °F /  7.8 °C 29.81in /  1009.4hPa Calm     85.4% 0.00in /  0mm 0 W/m2
20:39 50.1 °F /  10.1 °C 46.1 °F /  7.8 °C 29.82in /  1009.7hPa Calm     86% 0.00in /  0mm 0 W/m2
20:44 49.5 °F /  9.7 °C 45.5 °F /  7.5 °C 29.82in /  1009.7hPa Calm     86% 0.00in /  0mm 0 W/m2
20:49 49.1 °F /  9.5 °C 45.1 °F /  7.3 °C 29.82in /  1009.7hPa Calm     86% 0.00in /  0mm 0 W/m2
20:54 48.9 °F /  9.4 °C 45.1 °F /  7.3 °C 29.82in /  1009.7hPa NW 2mph /  3.2km/h 2mph /  3.2km/h 86.8% 0.00in /  0mm 0 W/m2
20:59 48.9 °F /  9.4 °C 45.1 °F /  7.3 °C 29.82in /  1009.7hPa NW 1.3mph /  2.1km/h 2mph /  3.2km/h 87% 0.00in /  0mm 0 W/m2
21:04 48.9 °F /  9.4 °C 45.1 °F /  7.3 °C 29.81in /  1009.4hPa NW 0.2mph /  0.3km/h 2mph /  3.2km/h 87% 0.00in /  0mm 0 W/m2
21:09 48.7 °F /  9.3 °C 45 °F /  7.2 °C 29.82in /  1009.7hPa Calm     87% 0.00in /  0mm 0 W/m2
21:14 48.5 °F /  9.2 °C 44.9 °F /  7.2 °C 29.82in /  1009.7hPa NW 0.2mph /  0.3km/h 1mph /  1.6km/h 87.4% 0.00in /  0mm 0 W/m2
21:19 48.1 °F /  8.9 °C 44.7 °F /  7.1 °C 29.82in /  1009.7hPa NW 0.2mph /  0.3km/h 2mph /  3.2km/h 87.8% 0.00in /  0mm 0 W/m2
21:24 48.1 °F /  8.9 °C 44.7 °F /  7.1 °C 29.82in /  1009.7hPa Calm     88% 0.00in /  0mm 0 W/m2
21:29 48.4 °F /  9.1 °C 45 °F /  7.2 °C 29.83in /  1010hPa NW 0.2mph /  0.3km/h 1mph /  1.6km/h 88% 0.00in /  0mm 0 W/m2
21:34 48.7 °F /  9.3 °C 45.5 °F /  7.5 °C 29.83in /  1010hPa NW 0.7mph /  1.1km/h 1mph /  1.6km/h 88.6% 0.00in /  0mm 0 W/m2
21:39 49.5 °F /  9.7 °C 46.4 °F /  8 °C 29.83in /  1010hPa Calm   1mph /  1.6km/h 89% 0.00in /  0mm 0 W/m2
21:44 49.3 °F /  9.6 °C 46.3 °F /  7.9 °C 29.84in /  1010.4hPa NW 0.8mph /  1.3km/h 2mph /  3.2km/h 89% 0.00in /  0mm 0 W/m2
21:49 47.9 °F /  8.8 °C 44.5 °F /  6.9 °C 29.84in /  1010.4hPa NW 0.8mph /  1.3km/h 2mph /  3.2km/h 88% 0.00in /  0mm 0 W/m2
21:54 47.5 °F /  8.6 °C 44.2 °F /  6.8 °C 29.84in /  1010.4hPa NW 1.1mph /  1.8km/h 2mph /  3.2km/h 88.2% 0.00in /  0mm 0 W/m2
21:59 47.4 °F /  8.6 °C 44.3 °F /  6.8 °C 29.84in /  1010.4hPa NW 0.7mph /  1.1km/h 2mph /  3.2km/h 89% 0.00in /  0mm 0 W/m2
22:04 47.1 °F /  8.4 °C 44.1 °F /  6.7 °C 29.84in /  1010.4hPa Calm   1mph /  1.6km/h 89% 0.00in /  0mm 0 W/m2
22:09 47 °F /  8.3 °C 44 °F /  6.7 °C 29.84in /  1010.4hPa Calm   1mph /  1.6km/h 89% 0.00in /  0mm 0 W/m2
22:14 47 °F /  8.3 °C 44 °F /  6.7 °C 29.84in /  1010.4hPa Calm     89% 0.00in /  0mm 0 W/m2
22:19 46.9 °F /  8.3 °C 43.9 °F /  6.6 °C 29.84in /  1010.4hPa Calm     89% 0.00in /  0mm 0 W/m2
22:24 46.9 °F /  8.3 °C 43.8 °F /  6.6 °C 29.85in /  1010.7hPa Calm     89% 0.00in /  0mm 0 W/m2
22:29 46.8 °F /  8.2 °C 43.7 °F /  6.5 °C 29.84in /  1010.4hPa Calm     89% 0.00in /  0mm 0 W/m2
22:34 46.6 °F /  8.1 °C 43.5 °F /  6.4 °C 29.84in /  1010.4hPa Calm     89% 0.00in /  0mm 0 W/m2
22:39 46.2 °F /  7.9 °C 43.2 °F /  6.2 °C 29.84in /  1010.4hPa NW 1.3mph /  2.1km/h 2mph /  3.2km/h 89% 0.00in /  0mm 0 W/m2
22:44 46.2 °F /  7.9 °C 43.4 °F /  6.3 °C 29.84in /  1010.4hPa NW 0.2mph /  0.3km/h 2mph /  3.2km/h 89.8% 0.00in /  0mm 0 W/m2
22:49 46.1 °F /  7.8 °C 43.3 °F /  6.3 °C 29.84in /  1010.4hPa Calm     90% 0.00in /  0mm 0 W/m2
22:54 46 °F /  7.8 °C 43.3 °F /  6.3 °C 29.85in /  1010.7hPa Calm     90% 0.00in /  0mm 0 W/m2
22:59 45.7 °F /  7.6 °C 43 °F /  6.1 °C 29.85in /  1010.7hPa Calm     90% 0.00in /  0mm 0 W/m2
23:04 45.3 °F /  7.4 °C 42.6 °F /  5.9 °C 29.85in /  1010.7hPa Calm     90% 0.00in /  0mm 0 W/m2
23:09 45.1 °F /  7.3 °C 42.4 °F /  5.8 °C 29.85in /  1010.7hPa Calm     90% 0.00in /  0mm 0 W/m2
23:14 45.1 °F /  7.3 °C 42.4 °F /  5.8 °C 29.85in /  1010.7hPa Calm     90% 0.00in /  0mm 0 W/m2
23:19 45.1 °F /  7.3 °C 42.4 °F /  5.8 °C 29.85in /  1010.7hPa Calm     90% 0.00in /  0mm 0 W/m2
23:24 45.1 °F /  7.3 °C 42.4 °F /  5.8 °C 29.85in /  1010.7hPa Calm     90% 0.00in /  0mm 0 W/m2
23:29 45 °F /  7.2 °C 42.3 °F /  5.7 °C 29.85in /  1010.7hPa Calm     90% 0.00in /  0mm 0 W/m2
23:34 45 °F /  7.2 °C 42.3 °F /  5.7 °C 29.85in /  1010.7hPa Calm     90% 0.00in /  0mm 0 W/m2
23:39 44.9 °F /  7.2 °C 42.2 °F /  5.7 °C 29.85in /  1010.7hPa Calm     90% 0.00in /  0mm 0 W/m2
23:44 44.8 °F /  7.1 °C 42.2 °F /  5.7 °C 29.85in /  1010.7hPa Calm     90.4% 0.00in /  0mm 0 W/m2
23:49 44.8 °F /  7.1 °C 42.3 °F /  5.7 °C 29.85in /  1010.7hPa NW 0.5mph /  0.8km/h 3mph /  4.8km/h 91% 0.00in /  0mm 0 W/m2
23:54 44.8 °F /  7.1 °C 42.3 °F /  5.7 °C 29.85in /  1010.7hPa NW 0.2mph /  0.3km/h 3mph /  4.8km/h 91% 0.00in /  0mm 0 W/m2
23:59 44.6 °F /  7 °C 42.1 °F /  5.6 °C 29.85in /  1010.7hPa Calm     91% 0.00in /  0mm 0 W/m2
Bath Spa Weather
Compliments of Weather Underground - 2 mb